Flight Track Log - Related Links

Times and Time Zones

All times are in EST time to prevent confusion due to time zone crossing. See the N288M flight status page for this flight to view local times or setup timezone preferences in your user account.

Time Position Orientation Groundspeed Altitude Reporting Facility
EST Latitude Longitude Course Direction KTS MPH feet Rate Location/Type
Fri 09:08:29 AM 34.8000 -96.6009 80° East  Level FlightAware Approximate
Fri 09:09:06 AM 34.8047 -96.5689 98° East 162 186 4,900  Level Fort Worth Center
Fri 09:10:06 AM 34.8003 -96.5286 90° East 129 148 6,000 1,050 Climbing Fort Worth Center
Fri 09:11:06 AM 34.8000 -96.4881 87° East 124 143 7,000 1,050 Climbing Fort Worth Center
Fri 09:12:06 AM 34.8019 -96.4450 94° East 124 143 8,100 1,150 Climbing Fort Worth Center
Fri 09:13:06 AM 34.7994 -96.4019 94° East 124 143 9,300 1,100 Climbing Fort Worth Center
Fri 09:14:06 AM 34.7969 -96.3542 88° East 130 150 10,300 950 Climbing Fort Worth Center
Fri 09:15:06 AM 34.7986 -96.3036 91° East 136 157 11,200 950 Climbing Fort Worth Center
Fri 09:16:06 AM 34.7981 -96.2478 91° East 148 170 12,200 1,000 Climbing Fort Worth Center
Fri 09:17:06 AM 34.7975 -96.1947 91° East 154 177 13,200 950 Climbing Fort Worth Center
Fri 09:18:06 AM 34.7969 -96.1289 91° East 160 184 14,100 950 Climbing Fort Worth Center
Fri 09:19:06 AM 34.7961 -96.0658 93° East 171 197 15,100 900 Climbing Fort Worth Center
Fri 09:20:06 AM 34.7933 -96.0025 91° East 183 211 15,900 900 Climbing Fort Worth Center
Fri 09:21:06 AM 34.7928 -95.9344 91° East 189 217 16,900 550 Climbing Fort Worth Center
Fri 09:22:06 AM 34.7917 -95.8586 93° East 205 236 17,000 100 Climbing Fort Worth Center
Fri 09:23:06 AM 34.7886 -95.7753 89° East 228 262 17,100 50 Climbing Fort Worth Center
Fri 09:24:06 AM 34.7897 -95.7069 91° East 239 275 17,100 -50 Level Fort Worth Center
Fri 09:25:06 AM 34.7886 -95.6133 88° East 244 281 17,000 -50 Descending Fort Worth Center
Fri 09:26:06 AM 34.7914 -95.5247 91° East 244 281 17,000  Level Fort Worth Center
Fri 09:27:06 AM 34.7900 -95.4364 93° East 244 281 17,000  Level Fort Worth Center
Fri 09:28:06 AM 34.7864 -95.3506 91° East 249 287 17,000  Level Fort Worth Center
Fri 09:29:06 AM 34.7850 -95.2644 97° East 249 287 17,000  Level Fort Worth Center
Fri 09:30:06 AM 34.7775 -95.1914 89° East 249 287 17,000  Level Fort Worth Center
Fri 09:32:14 AM 34.7789 -95.0092 95° East 240 276 17,000 32 Level Memphis Center
Fri 09:33:14 AM 34.7717 -94.9178 89° East 240 276 17,100 50 Climbing Memphis Center
Fri 09:34:14 AM 34.7731 -94.8269 93° East 251 289 17,100  Level Memphis Center
Fri 09:35:14 AM 34.7694 -94.7458 91° East 251 289 17,100  Level Memphis Center
Fri 09:36:14 AM 34.7683 -94.6600 91° East 251 289 17,100  Level Memphis Center
Fri 09:37:14 AM 34.7672 -94.5739 93° East 251 289 17,100  Level Memphis Center
Fri 09:38:14 AM 34.7636 -94.4903 91° East 251 289 17,100  Level Memphis Center
Fri 09:39:14 AM 34.7622 -94.4042 93° East 257 296 17,100  Level Memphis Center
Fri 09:40:14 AM 34.7589 -94.3156 88° East 257 296 17,100  Level Memphis Center
Fri 09:41:14 AM 34.7617 -94.2272 91° East 262 302 17,100  Level Memphis Center
Fri 09:42:14 AM 34.7600 -94.1439 94° East 252 290 17,100  Level Memphis Center
Fri 09:43:14 AM 34.7544 -94.0550 91° East 252 290 17,100  Level Memphis Center
Fri 09:44:14 AM 34.7528 -93.9692 93° East 252 290 17,100  Level Memphis Center
Fri 09:45:14 AM 34.7489 -93.8856 91° East 252 290 17,100  Level Memphis Center
Fri 09:46:14 AM 34.7472 -93.7994 95° East 252 290 17,100  Level Memphis Center
Fri 09:47:14 AM 34.7411 -93.7133 92° East 252 290 17,100  Level Memphis Center
Fri 09:48:14 AM 34.7392 -93.6325 92° East 252 290 17,100  Level Memphis Center
Fri 09:49:14 AM 34.7372 -93.5464 95° East 252 290 17,100  Level Memphis Center
Fri 09:50:14 AM 34.7311 -93.4603 90° East 258 297 17,100  Level Memphis Center
Fri 09:51:14 AM 34.7308 -93.3769 93° East 258 297 17,100  Level Memphis Center
Fri 09:52:14 AM 34.7267 -93.2908 92° East 258 297 17,100  Level Memphis Center
Fri 09:53:14 AM 34.7244 -93.2047 93° East 253 291 17,100  Level Memphis Center
Fri 09:54:14 AM 34.7203 -93.1214 93° East 179 206 17,100  Level Memphis Center
Fri 09:55:14 AM 34.7158 -93.0328 92° East 212 244 17,100  Level Memphis Center
Fri 09:56:14 AM 34.7136 -92.9467 94° East 239 275 17,100  Level Memphis Center
Fri 09:57:14 AM 34.7089 -92.8633 92° East 251 289 17,100  Level Memphis Center
Fri 09:58:14 AM 34.7064 -92.7772 93° East 256 295 17,100  Level Memphis Center
Fri 09:59:14 AM 34.7019 -92.6886 92° East 256 295 17,100  Level Memphis Center
Fri 10:00:14 AM 34.6992 -92.6028 92° East 256 295 17,100  Level Memphis Center
Fri 10:01:14 AM 34.6967 -92.5169 94° East 256 295 17,100  Level Memphis Center
Fri 10:02:14 AM 34.6919 -92.4333 92° East 256 295 17,100  Level Memphis Center
Fri 10:03:14 AM 34.6892 -92.3450 94° East 256 295 17,100  Level Memphis Center
Fri 10:04:14 AM 34.6842 -92.2589 93° East 256 295 17,100  Level Memphis Center
Fri 10:05:14 AM 34.6811 -92.1756 94° East 256 295 17,100  Level Memphis Center
Fri 10:06:14 AM 34.6761 -92.0844 96° East 256 295 17,100  Level Memphis Center
Fri 10:07:14 AM 34.6689 -92.0036 91° East 256 295 17,100  Level Memphis Center
Fri 10:08:14 AM 34.6681 -91.9150 92° East 256 295 17,100  Level Memphis Center
Fri 10:09:14 AM 34.6650 -91.8292 94° East 256 295 17,100  Level Memphis Center
Fri 10:10:14 AM 34.6597 -91.7433 94° East 256 295 17,100  Level Memphis Center
Fri 10:11:14 AM 34.6542 -91.6575 94° East 256 295 17,100  Level Memphis Center
Fri 10:12:14 AM 34.6489 -91.5739 93° East 256 295 17,100  Level Memphis Center
Fri 10:13:14 AM 34.6456 -91.4856 91° East 256 295 17,100  Level Memphis Center
Fri 10:14:14 AM 34.6442 -91.3997 95° East 256 295 17,100  Level Memphis Center
Fri 10:15:14 AM 34.6386 -91.3164 94° East 256 295 17,100  Level Memphis Center
Fri 10:16:14 AM 34.6331 -91.2281 92° East 256 295 17,100  Level Memphis Center
Fri 10:17:14 AM 34.6314 -91.1522 96° East 256 295 17,100 -50 Level Memphis Center
Fri 10:18:14 AM 34.6236 -91.0664 93° East 256 295 17,000 -50 Descending Memphis Center
Fri 10:19:14 AM 34.6197 -90.9781 93° East 256 295 17,000  Level Memphis Center
Fri 10:20:14 AM 34.6161 -90.8922 95° East 256 295 17,000  Level Memphis Center
Fri 10:21:14 AM 34.6103 -90.8039 97° East 256 295 17,000  Level Memphis Center
Fri 10:22:14 AM 34.6019 -90.7181 93° East 256 295 17,000  Level Memphis Center
Fri 10:23:14 AM 34.5981 -90.6322 93° East 256 295 17,000  Level Memphis Center
Fri 10:24:14 AM 34.5942 -90.5361 95° East 256 295 17,000  Level Memphis Center
Fri 10:25:14 AM 34.5881 -90.4506 95° East 261 300 17,000  Level Memphis Center
Fri 10:26:14 AM 34.5817 -90.3647 93° East 256 295 17,000  Level Memphis Center
Fri 10:27:14 AM 34.5775 -90.2789 95° East 256 295 17,000  Level Memphis Center
Fri 10:28:14 AM 34.5711 -90.1906 93° East 256 295 17,000  Level Memphis Center
Fri 10:29:14 AM 34.5669 -90.1050 95° East 256 295 17,000  Level Memphis Center
Fri 10:30:14 AM 34.5603 -90.0167 94° East 256 295 17,000  Level Memphis Center
Fri 10:31:14 AM 34.5558 -89.9308 95° East 256 295 17,000  Level Memphis Center
Fri 10:32:14 AM 34.5494 -89.8453 95° East 256 295 17,000  Level Memphis Center
Fri 10:33:14 AM 34.5428 -89.7569 94° East 256 295 17,000  Level Memphis Center
Fri 10:34:14 AM 34.5381 -89.6689 94° East 256 295 17,000  Level Memphis Center
Fri 10:35:14 AM 34.5333 -89.5831 95° East 256 295 17,000  Level Memphis Center
Fri 10:36:14 AM 34.5267 -89.4975 95° East 256 295 17,000  Level Memphis Center
Fri 10:37:14 AM 34.5197 -89.4094 95° East 256 295 17,000  Level Memphis Center
Fri 10:38:14 AM 34.5147 -89.3339 94° East 256 295 17,000  Level Memphis Center
Fri 10:39:14 AM 34.5100 -89.2456 94° East 256 295 17,000  Level Memphis Center
Fri 10:40:14 AM 34.5050 -89.1625 96° East 250 288 17,000  Level Memphis Center
Fri 10:41:14 AM 34.4978 -89.0744 96° East 258 297 17,000  Level Memphis Center
Fri 10:42:14 AM 34.4906 -88.9889 94° East 258 297 17,000  Level Memphis Center
Fri 10:43:14 AM 34.4856 -88.9008 94° East 258 297 17,000  Level Memphis Center
Fri 10:44:14 AM 34.4803 -88.8100 96° East 253 291 17,000  Level Memphis Center
Fri 10:45:14 AM 34.4728 -88.7247 98° East 253 291 17,000  Level Memphis Center
Fri 10:46:14 AM 34.4633 -88.6417 93° East 253 291 17,000  Level Memphis Center
Fri 10:47:14 AM 34.4600 -88.5561 96° East 253 291 17,000  Level Memphis Center
Fri 10:48:14 AM 34.4525 -88.4706 94° East 253 291 17,000  Level Memphis Center
Fri 10:49:14 AM 34.4469 -88.3850 96° East 253 291 17,000  Level Memphis Center
Fri 10:50:14 AM 34.4394 -88.2997 96° East 258 297 17,000  Level Memphis Center
Fri 10:51:14 AM 34.4317 -88.2142 94° East 258 297 17,000  Level Memphis Center
Fri 10:52:14 AM 34.4261 -88.1286 95° East 258 297 17,000  Level Memphis Center
Fri 10:53:14 AM 34.4203 -88.0433 96° East 258 297 17,000  Level Memphis Center
Fri 10:54:14 AM 34.4125 -87.9606 96° East 258 297 17,000  Level Memphis Center
Fri 10:55:14 AM 34.4044 -87.8750 95° East 258 297 17,000  Level Memphis Center
Fri 10:56:15 AM 34.3986 -87.7897 97° East 258 297 17,000  Level Memphis Center
Fri 10:57:14 AM 34.3906 -87.7044 97° East 258 297 17,000  Level Memphis Center
Fri 10:58:14 AM 34.3825 -87.6242 96° East 253 291 17,000  Level Memphis Center
Fri 10:59:14 AM 34.3767 -87.5511 96° East 253 291 17,000  Level Memphis Center
Fri 11:00:14 AM 34.3683 -87.4533 93° East 258 297 17,000  Level Memphis Center
Fri 11:01:14 AM 34.3642 -87.3706 97° East 253 291 17,000  Level Memphis Center
Fri 11:02:14 AM 34.3558 -87.2878 95° East 253 291 17,000  Level Memphis Center
Fri 11:03:14 AM 34.3494 -87.2025 97° East 253 291 17,000  Level Memphis Center
Fri 11:04:14 AM 34.3411 -87.1172 95° East 253 291 17,000  Level Memphis Center
Fri 11:05:14 AM 34.3347 -87.0319 97° East 253 291 17,000  Level Memphis Center
Fri 11:06:14 AM 34.3261 -86.9469 95° East 253 291 17,000  Level Memphis Center
Fri 11:07:14 AM 34.3197 -86.8617 96° East 253 291 17,000  Level Memphis Center
Fri 11:09:03 AM 34.3058 -86.7069 96° East 261 300 17,000  Level Atlanta Center
Fri 11:10:03 AM 34.2975 -86.6186 96° East 261 300 17,000  Level Atlanta Center
Fri 11:11:03 AM 34.2908 -86.5356 95° East 255 293 17,000  Level Atlanta Center
Fri 11:12:03 AM 34.2842 -86.4497 97° East 255 293 17,000  Level Atlanta Center
Fri 11:13:03 AM 34.2753 -86.3642 96° East 255 293 17,000 50 Level Atlanta Center
Fri 11:14:03 AM 34.2686 -86.2808 98° East 255 293 17,100 50 Climbing Atlanta Center
Fri 11:15:03 AM 34.2594 -86.1978 95° East 255 293 17,100  Level Atlanta Center
Fri 11:16:03 AM 34.2528 -86.1097 99° East 255 293 17,100  Level Atlanta Center
Fri 11:17:03 AM 34.2417 -86.0264 96° East 255 293 17,100  Level Atlanta Center
Fri 11:18:03 AM 34.2344 -85.9433 98° East 255 293 17,100  Level Atlanta Center
Fri 11:19:03 AM 34.2253 -85.8603 99° East 255 293 17,100 -50 Level Atlanta Center
Fri 11:20:03 AM 34.2142 -85.7722 103° East 255 293 17,000 -50 Descending Atlanta Center
Fri 11:21:03 AM 34.1986 -85.6914 101° East 250 288 17,000  Level Atlanta Center
Fri 11:22:03 AM 34.1850 -85.6083 104° East 250 288 17,000  Level Atlanta Center
Fri 11:23:03 AM 34.1692 -85.5303 107° East 240 276 17,000  Level Atlanta Center
Fri 11:24:03 AM 34.1514 -85.4594 102° East 240 276 17,000  Level Atlanta Center
Fri 11:25:03 AM 34.1375 -85.3789 106° East 240 276 17,000  Level Atlanta Center
Fri 11:26:03 AM 34.1197 -85.3033 118° Southeast 240 276 17,000  Level Atlanta Center
Fri 11:27:03 AM 34.0892 -85.2328 121° Southeast 240 276 17,000  Level Atlanta Center
Fri 11:28:03 AM 34.0564 -85.1672 97° East 235 270 17,000  Level Atlanta Center
Fri 11:29:03 AM 34.0486 -85.0867 93° East 229 264 17,000 -150 Level Atlanta Center
Fri 11:30:03 AM 34.0453 -85.0014 94° East 245 282 16,700 -500 Descending Atlanta Center
Fri 11:31:03 AM 34.0394 -84.9086 93° East 253 291 16,000 -700 Descending Atlanta Center
Fri 11:32:03 AM 34.0358 -84.8333 94° East 261 300 15,300 -500 Descending Atlanta Center
Fri 11:33:03 AM 34.0303 -84.7481 91° East 254 292 15,000 -150 Descending Atlanta Center
Fri 11:34:03 AM 34.0286 -84.6681 97° East 248 285 15,000  Level Atlanta Center
Fri 11:35:03 AM 34.0206 -84.5928 98° East 230 265 15,000  Level Atlanta Center
Fri 11:36:03 AM 34.0125 -84.5200 107° East 225 259 15,000  Level Atlanta Center
Fri 11:37:03 AM 33.9939 -84.4472 103° East 225 259 15,000  Level Atlanta Center
Fri 11:38:03 AM 33.9794 -84.3744 105° East 225 259 15,000  Level Atlanta Center
Fri 11:39:03 AM 33.9631 -84.2992 105° East 225 259 15,000  Level Atlanta Center
Fri 11:40:03 AM 33.9464 -84.2217 103° East 230 265 15,000  Level Atlanta Center
Fri 11:41:03 AM 33.9300 -84.1389 107° East 230 265 15,000  Level Atlanta Center
Fri 11:42:03 AM 33.9111 -84.0639 106° East 230 265 15,000  Level Atlanta Center
Fri 11:42:35 AM 33.9000 -84.0167 90° East 237 273 15,000 -326 Level Atlanta TRACON
Fri 11:43:35 AM 33.9000 -83.9500 90° East 232 267 14,500 -1,000 Descending Atlanta TRACON
Fri 11:44:35 AM 33.9000 -83.8833 78° East 206 237 13,000 -1,568 Descending Atlanta TRACON
Fri 11:45:03 AM 33.9067 -83.8461 83° East 213 245 12,200 -1,500 Descending Atlanta Center
Fri 11:46:03 AM 33.9131 -83.7808 86° East 202 232 10,800 -1,100 Descending Atlanta Center
Fri 11:47:03 AM 33.9169 -83.7183 82° East 188 216 10,000 -600 Descending Atlanta Center
Fri 11:48:03 AM 33.9231 -83.6683 93° East 164 189 9,600 -800 Descending Atlanta Center
Fri 11:49:03 AM 33.9208 -83.6158 88° East 159 183 8,400 -1,300 Descending Atlanta Center
Fri 11:50:03 AM 33.9228 -83.5531 93° East 168 193 7,000 -1,450 Descending Atlanta Center
Fri 11:51:03 AM 33.9203 -83.4931 82° East 173 199 5,500 -1,500 Descending Atlanta Center
Fri 11:53:11 AM 33.9333 -83.3833 90° East 147 169 2,300 -1,245 Descending Atlanta TRACON
Fri 11:54:11 AM 33.9333 -83.3333 90° East 137 158 1,600 -700 Descending Atlanta TRACON

Login

Don't have an account? Register now (free) for customized features, flight alerts, and more!